sensor_id;sensor_type;location;lat;lon;timestamp;P1;durP1;ratioP1;P2;durP2;ratioP2
11034;SDS011;5571;48.110;-1.706;2023-05-16T00:00:15;11.13;;;2.87;;
11034;SDS011;5571;48.110;-1.706;2023-05-16T00:02:41;10.07;;;2.70;;
11034;SDS011;5571;48.110;-1.706;2023-05-16T00:05:07;6.27;;;2.37;;
11034;SDS011;5571;48.110;-1.706;2023-05-16T00:07:33;10.17;;;2.90;;
11034;SDS011;5571;48.110;-1.706;2023-05-16T00:09:59;5.13;;;2.40;;
11034;SDS011;5571;48.110;-1.706;2023-05-16T00:12:25;5.80;;;2.53;;
11034;SDS011;5571;48.110;-1.706;2023-05-16T00:14:51;11.60;;;2.40;;
11034;SDS011;5571;48.110;-1.706;2023-05-16T00:17:17;10.00;;;2.80;;
11034;SDS011;5571;48.110;-1.706;2023-05-16T00:19:44;6.57;;;2.50;;
11034;SDS011;5571;48.110;-1.706;2023-05-16T00:22:13;4.57;;;2.53;;
11034;SDS011;5571;48.110;-1.706;2023-05-16T00:24:39;11.73;;;2.63;;
11034;SDS011;5571;48.110;-1.706;2023-05-16T00:27:06;10.37;;;2.87;;
11034;SDS011;5571;48.110;-1.706;2023-05-16T00:29:32;6.63;;;2.90;;
11034;SDS011;5571;48.110;-1.706;2023-05-16T00:32:00;8.77;;;2.20;;
11034;SDS011;5571;48.110;-1.706;2023-05-16T00:34:26;8.73;;;2.80;;
11034;SDS011;5571;48.110;-1.706;2023-05-16T00:36:51;9.13;;;3.00;;
11034;SDS011;5571;48.110;-1.706;2023-05-16T00:39:17;3.83;;;2.63;;
11034;SDS011;5571;48.110;-1.706;2023-05-16T00:41:43;9.97;;;2.80;;
11034;SDS011;5571;48.110;-1.706;2023-05-16T00:44:10;9.73;;;2.83;;
11034;SDS011;5571;48.110;-1.706;2023-05-16T00:46:36;4.77;;;2.40;;
11034;SDS011;5571;48.110;-1.706;2023-05-16T00:49:02;12.00;;;3.30;;
11034;SDS011;5571;48.110;-1.706;2023-05-16T00:51:28;11.07;;;2.60;;
11034;SDS011;5571;48.110;-1.706;2023-05-16T00:53:54;10.10;;;2.97;;
11034;SDS011;5571;48.110;-1.706;2023-05-16T00:56:21;6.77;;;2.70;;
11034;SDS011;5571;48.110;-1.706;2023-05-16T00:58:47;11.43;;;2.60;;
11034;SDS011;5571;48.110;-1.706;2023-05-16T01:01:14;7.83;;;2.97;;
11034;SDS011;5571;48.110;-1.706;2023-05-16T01:03:40;7.27;;;2.70;;
11034;SDS011;5571;48.110;-1.706;2023-05-16T01:06:07;5.53;;;2.47;;
11034;SDS011;5571;48.110;-1.706;2023-05-16T01:08:34;13.67;;;4.43;;
11034;SDS011;5571;48.110;-1.706;2023-05-16T01:16:23;10.43;;;3.20;;
11034;SDS011;5571;48.110;-1.706;2023-05-16T01:22:15;15.83;;;10.20;;
11034;SDS011;5571;48.110;-1.706;2023-05-16T01:27:37;10.70;;;5.30;;
11034;SDS011;5571;48.110;-1.706;2023-05-16T01:30:14;8.97;;;3.27;;
11034;SDS011;5571;48.110;-1.706;2023-05-16T01:32:41;5.87;;;2.57;;
11034;SDS011;5571;48.110;-1.706;2023-05-16T01:35:08;9.60;;;3.13;;
11034;SDS011;5571;48.110;-1.706;2023-05-16T01:37:38;7.70;;;2.57;;
11034;SDS011;5571;48.110;-1.706;2023-05-16T01:40:29;8.23;;;2.60;;
11034;SDS011;5571;48.110;-1.706;2023-05-16T01:43:15;9.53;;;2.60;;
11034;SDS011;5571;48.110;-1.706;2023-05-16T01:45:46;6.43;;;2.73;;
11034;SDS011;5571;48.110;-1.706;2023-05-16T01:48:18;6.67;;;2.53;;
11034;SDS011;5571;48.110;-1.706;2023-05-16T01:50:49;7.87;;;2.87;;
11034;SDS011;5571;48.110;-1.706;2023-05-16T01:53:32;5.53;;;2.43;;
11034;SDS011;5571;48.110;-1.706;2023-05-16T01:56:02;6.47;;;2.40;;
11034;SDS011;5571;48.110;-1.706;2023-05-16T01:58:32;6.73;;;2.57;;
11034;SDS011;5571;48.110;-1.706;2023-05-16T02:01:01;5.80;;;2.80;;
11034;SDS011;5571;48.110;-1.706;2023-05-16T02:03:28;6.43;;;2.43;;
11034;SDS011;5571;48.110;-1.706;2023-05-16T02:05:55;4.73;;;2.50;;
11034;SDS011;5571;48.110;-1.706;2023-05-16T02:08:21;8.70;;;2.67;;
11034;SDS011;5571;48.110;-1.706;2023-05-16T02:10:47;7.50;;;2.77;;
11034;SDS011;5571;48.110;-1.706;2023-05-16T02:13:13;9.40;;;3.17;;
11034;SDS011;5571;48.110;-1.706;2023-05-16T02:15:38;42.40;;;21.70;;
11034;SDS011;5571;48.110;-1.706;2023-05-16T02:18:04;27.60;;;15.80;;
11034;SDS011;5571;48.110;-1.706;2023-05-16T02:20:30;25.43;;;15.20;;
11034;SDS011;5571;48.110;-1.706;2023-05-16T02:22:55;14.90;;;9.43;;
11034;SDS011;5571;48.110;-1.706;2023-05-16T02:25:21;18.83;;;9.30;;
11034;SDS011;5571;48.110;-1.706;2023-05-16T02:27:47;13.33;;;8.40;;
11034;SDS011;5571;48.110;-1.706;2023-05-16T02:30:13;9.67;;;4.10;;
11034;SDS011;5571;48.110;-1.706;2023-05-16T02:32:39;9.63;;;3.20;;
11034;SDS011;5571;48.110;-1.706;2023-05-16T02:35:05;9.60;;;3.17;;
11034;SDS011;5571;48.110;-1.706;2023-05-16T02:37:32;7.73;;;2.70;;
11034;SDS011;5571;48.110;-1.706;2023-05-16T02:39:57;6.40;;;2.87;;
11034;SDS011;5571;48.110;-1.706;2023-05-16T02:42:24;8.03;;;2.57;;
11034;SDS011;5571;48.110;-1.706;2023-05-16T02:44:51;7.80;;;2.67;;
11034;SDS011;5571;48.110;-1.706;2023-05-16T02:47:17;9.83;;;2.80;;
11034;SDS011;5571;48.110;-1.706;2023-05-16T02:49:42;8.10;;;3.20;;
11034;SDS011;5571;48.110;-1.706;2023-05-16T02:52:08;9.17;;;3.13;;
11034;SDS011;5571;48.110;-1.706;2023-05-16T02:54:34;5.77;;;2.50;;
11034;SDS011;5571;48.110;-1.706;2023-05-16T02:57:00;4.90;;;2.60;;
11034;SDS011;5571;48.110;-1.706;2023-05-16T02:59:25;8.60;;;3.13;;
11034;SDS011;5571;48.110;-1.706;2023-05-16T03:01:51;8.17;;;3.20;;
11034;SDS011;5571;48.110;-1.706;2023-05-16T03:04:17;7.73;;;3.17;;
11034;SDS011;5571;48.110;-1.706;2023-05-16T03:06:42;9.40;;;3.00;;
11034;SDS011;5571;48.110;-1.706;2023-05-16T03:09:08;11.77;;;3.87;;
11034;SDS011;5571;48.110;-1.706;2023-05-16T03:11:34;7.97;;;3.47;;
11034;SDS011;5571;48.110;-1.706;2023-05-16T03:14:00;7.40;;;3.00;;
11034;SDS011;5571;48.110;-1.706;2023-05-16T03:16:26;7.43;;;3.10;;
11034;SDS011;5571;48.110;-1.706;2023-05-16T03:18:52;4.63;;;2.83;;
11034;SDS011;5571;48.110;-1.706;2023-05-16T03:21:18;5.40;;;3.07;;
11034;SDS011;5571;48.110;-1.706;2023-05-16T03:23:43;10.43;;;3.90;;
11034;SDS011;5571;48.110;-1.706;2023-05-16T03:26:09;6.77;;;3.30;;
11034;SDS011;5571;48.110;-1.706;2023-05-16T03:28:35;8.90;;;3.30;;
11034;SDS011;5571;48.110;-1.706;2023-05-16T03:31:01;9.60;;;3.77;;
11034;SDS011;5571;48.110;-1.706;2023-05-16T03:33:27;7.07;;;3.40;;
11034;SDS011;5571;48.110;-1.706;2023-05-16T03:35:52;11.40;;;3.30;;
11034;SDS011;5571;48.110;-1.706;2023-05-16T03:38:18;7.40;;;3.33;;
11034;SDS011;5571;48.110;-1.706;2023-05-16T03:40:43;6.90;;;3.40;;
11034;SDS011;5571;48.110;-1.706;2023-05-16T03:43:09;7.90;;;2.70;;
11034;SDS011;5571;48.110;-1.706;2023-05-16T03:45:35;9.40;;;3.20;;
11034;SDS011;5571;48.110;-1.706;2023-05-16T03:48:00;3.30;;;3.00;;
11034;SDS011;5571;48.110;-1.706;2023-05-16T03:50:26;7.43;;;3.37;;
11034;SDS011;5571;48.110;-1.706;2023-05-16T03:52:51;7.53;;;3.30;;
11034;SDS011;5571;48.110;-1.706;2023-05-16T03:55:18;11.37;;;3.83;;
11034;SDS011;5571;48.110;-1.706;2023-05-16T03:57:44;7.10;;;3.20;;
11034;SDS011;5571;48.110;-1.706;2023-05-16T04:00:11;7.87;;;3.70;;
11034;SDS011;5571;48.110;-1.706;2023-05-16T04:02:38;8.90;;;3.57;;
11034;SDS011;5571;48.110;-1.706;2023-05-16T04:05:05;5.20;;;3.27;;
11034;SDS011;5571;48.110;-1.706;2023-05-16T04:07:32;9.60;;;3.80;;
11034;SDS011;5571;48.110;-1.706;2023-05-16T04:09:58;11.57;;;3.70;;
11034;SDS011;5571;48.110;-1.706;2023-05-16T04:12:23;6.77;;;3.63;;
11034;SDS011;5571;48.110;-1.706;2023-05-16T04:14:49;5.13;;;3.47;;
11034;SDS011;5571;48.110;-1.706;2023-05-16T04:17:15;9.37;;;3.67;;
11034;SDS011;5571;48.110;-1.706;2023-05-16T04:19:40;5.10;;;3.10;;
11034;SDS011;5571;48.110;-1.706;2023-05-16T04:22:06;5.30;;;3.40;;
11034;SDS011;5571;48.110;-1.706;2023-05-16T04:24:31;8.23;;;4.00;;
11034;SDS011;5571;48.110;-1.706;2023-05-16T04:26:57;7.27;;;3.87;;
11034;SDS011;5571;48.110;-1.706;2023-05-16T04:29:23;6.93;;;3.97;;
11034;SDS011;5571;48.110;-1.706;2023-05-16T04:31:49;7.80;;;3.50;;
11034;SDS011;5571;48.110;-1.706;2023-05-16T04:34:15;6.17;;;3.90;;
11034;SDS011;5571;48.110;-1.706;2023-05-16T04:36:40;7.87;;;3.80;;
11034;SDS011;5571;48.110;-1.706;2023-05-16T04:39:06;9.40;;;3.37;;
11034;SDS011;5571;48.110;-1.706;2023-05-16T04:41:32;12.97;;;3.80;;
11034;SDS011;5571;48.110;-1.706;2023-05-16T04:44:01;6.80;;;3.33;;
11034;SDS011;5571;48.110;-1.706;2023-05-16T04:46:30;7.60;;;3.50;;
11034;SDS011;5571;48.110;-1.706;2023-05-16T04:48:56;4.43;;;3.17;;
11034;SDS011;5571;48.110;-1.706;2023-05-16T04:51:21;8.53;;;3.23;;
11034;SDS011;5571;48.110;-1.706;2023-05-16T04:53:47;7.13;;;3.10;;
11034;SDS011;5571;48.110;-1.706;2023-05-16T04:56:13;9.03;;;3.37;;
11034;SDS011;5571;48.110;-1.706;2023-05-16T04:58:38;7.93;;;3.53;;
11034;SDS011;5571;48.110;-1.706;2023-05-16T05:01:04;9.20;;;3.20;;
11034;SDS011;5571;48.110;-1.706;2023-05-16T05:03:30;7.67;;;3.50;;
11034;SDS011;5571;48.110;-1.706;2023-05-16T05:05:55;7.83;;;3.40;;
11034;SDS011;5571;48.110;-1.706;2023-05-16T05:08:21;4.87;;;3.17;;
11034;SDS011;5571;48.110;-1.706;2023-05-16T05:10:47;6.60;;;3.50;;
11034;SDS011;5571;48.110;-1.706;2023-05-16T05:13:12;4.47;;;3.13;;
11034;SDS011;5571;48.110;-1.706;2023-05-16T05:15:38;9.03;;;3.90;;
11034;SDS011;5571;48.110;-1.706;2023-05-16T05:18:03;8.00;;;3.50;;
11034;SDS011;5571;48.110;-1.706;2023-05-16T05:20:29;10.73;;;3.37;;
11034;SDS011;5571;48.110;-1.706;2023-05-16T05:22:55;10.47;;;3.93;;
11034;SDS011;5571;48.110;-1.706;2023-05-16T05:25:21;7.97;;;3.77;;
11034;SDS011;5571;48.110;-1.706;2023-05-16T05:27:46;8.17;;;3.60;;
11034;SDS011;5571;48.110;-1.706;2023-05-16T05:30:12;8.60;;;3.60;;
11034;SDS011;5571;48.110;-1.706;2023-05-16T05:32:38;9.07;;;3.47;;
11034;SDS011;5571;48.110;-1.706;2023-05-16T05:35:03;7.70;;;3.40;;
11034;SDS011;5571;48.110;-1.706;2023-05-16T05:37:30;5.37;;;3.30;;
11034;SDS011;5571;48.110;-1.706;2023-05-16T05:39:55;6.83;;;3.83;;
11034;SDS011;5571;48.110;-1.706;2023-05-16T05:42:21;8.47;;;3.60;;
11034;SDS011;5571;48.110;-1.706;2023-05-16T05:44:47;7.70;;;3.63;;
11034;SDS011;5571;48.110;-1.706;2023-05-16T05:47:12;7.97;;;3.60;;
11034;SDS011;5571;48.110;-1.706;2023-05-16T05:49:39;11.73;;;3.57;;
11034;SDS011;5571;48.110;-1.706;2023-05-16T05:52:05;12.27;;;3.40;;
11034;SDS011;5571;48.110;-1.706;2023-05-16T05:54:31;7.10;;;3.80;;
11034;SDS011;5571;48.110;-1.706;2023-05-16T05:56:57;8.90;;;3.20;;
11034;SDS011;5571;48.110;-1.706;2023-05-16T05:59:23;8.20;;;3.40;;
11034;SDS011;5571;48.110;-1.706;2023-05-16T06:01:48;7.87;;;3.67;;
11034;SDS011;5571;48.110;-1.706;2023-05-16T06:04:18;9.17;;;3.97;;
11034;SDS011;5571;48.110;-1.706;2023-05-16T06:06:44;11.87;;;3.97;;
11034;SDS011;5571;48.110;-1.706;2023-05-16T06:09:09;6.67;;;3.70;;
11034;SDS011;5571;48.110;-1.706;2023-05-16T06:11:35;7.37;;;3.63;;
11034;SDS011;5571;48.110;-1.706;2023-05-16T06:14:00;9.90;;;4.13;;
11034;SDS011;5571;48.110;-1.706;2023-05-16T06:16:26;9.47;;;4.17;;
11034;SDS011;5571;48.110;-1.706;2023-05-16T06:18:52;6.70;;;4.27;;
11034;SDS011;5571;48.110;-1.706;2023-05-16T06:21:17;12.37;;;4.50;;
11034;SDS011;5571;48.110;-1.706;2023-05-16T06:23:43;13.50;;;5.10;;
11034;SDS011;5571;48.110;-1.706;2023-05-16T06:26:09;13.90;;;4.70;;
11034;SDS011;5571;48.110;-1.706;2023-05-16T06:28:34;10.47;;;4.80;;
11034;SDS011;5571;48.110;-1.706;2023-05-16T06:31:00;15.23;;;5.07;;
11034;SDS011;5571;48.110;-1.706;2023-05-16T06:33:26;11.90;;;4.73;;
11034;SDS011;5571;48.110;-1.706;2023-05-16T06:35:51;12.27;;;4.60;;
11034;SDS011;5571;48.110;-1.706;2023-05-16T06:38:17;9.97;;;4.60;;
11034;SDS011;5571;48.110;-1.706;2023-05-16T06:40:46;9.47;;;4.30;;
11034;SDS011;5571;48.110;-1.706;2023-05-16T06:43:12;10.70;;;4.00;;
11034;SDS011;5571;48.110;-1.706;2023-05-16T06:45:38;10.43;;;4.40;;
11034;SDS011;5571;48.110;-1.706;2023-05-16T06:48:04;12.47;;;4.73;;
11034;SDS011;5571;48.110;-1.706;2023-05-16T06:50:31;10.10;;;5.07;;
11034;SDS011;5571;48.110;-1.706;2023-05-16T06:52:57;12.87;;;4.53;;
11034;SDS011;5571;48.110;-1.706;2023-05-16T06:55:22;10.57;;;4.17;;
11034;SDS011;5571;48.110;-1.706;2023-05-16T06:57:48;8.77;;;4.93;;
11034;SDS011;5571;48.110;-1.706;2023-05-16T07:00:13;10.77;;;4.70;;
11034;SDS011;5571;48.110;-1.706;2023-05-16T07:02:39;11.03;;;4.77;;
11034;SDS011;5571;48.110;-1.706;2023-05-16T07:05:05;8.83;;;4.20;;
11034;SDS011;5571;48.110;-1.706;2023-05-16T07:07:31;5.47;;;4.13;;
11034;SDS011;5571;48.110;-1.706;2023-05-16T07:09:57;16.43;;;4.60;;
11034;SDS011;5571;48.110;-1.706;2023-05-16T07:12:22;11.50;;;4.67;;
11034;SDS011;5571;48.110;-1.706;2023-05-16T07:14:48;8.63;;;4.20;;
11034;SDS011;5571;48.110;-1.706;2023-05-16T07:17:14;11.30;;;4.13;;
11034;SDS011;5571;48.110;-1.706;2023-05-16T07:19:40;5.20;;;4.10;;
11034;SDS011;5571;48.110;-1.706;2023-05-16T07:22:05;12.13;;;4.57;;
11034;SDS011;5571;48.110;-1.706;2023-05-16T07:24:31;13.67;;;4.50;;
11034;SDS011;5571;48.110;-1.706;2023-05-16T07:26:57;11.67;;;3.30;;
11034;SDS011;5571;48.110;-1.706;2023-05-16T07:29:23;7.87;;;3.10;;
11034;SDS011;5571;48.110;-1.706;2023-05-16T07:31:49;7.63;;;3.03;;
11034;SDS011;5571;48.110;-1.706;2023-05-16T07:34:14;8.73;;;3.17;;
11034;SDS011;5571;48.110;-1.706;2023-05-16T07:36:41;9.03;;;2.90;;
11034;SDS011;5571;48.110;-1.706;2023-05-16T07:39:06;11.43;;;3.80;;
11034;SDS011;5571;48.110;-1.706;2023-05-16T07:41:32;6.47;;;2.80;;
11034;SDS011;5571;48.110;-1.706;2023-05-16T07:43:57;7.10;;;2.80;;
11034;SDS011;5571;48.110;-1.706;2023-05-16T07:46:23;8.37;;;2.67;;
11034;SDS011;5571;48.110;-1.706;2023-05-16T07:48:49;4.93;;;2.60;;
11034;SDS011;5571;48.110;-1.706;2023-05-16T07:51:15;5.60;;;2.60;;
11034;SDS011;5571;48.110;-1.706;2023-05-16T07:53:40;5.27;;;2.23;;
11034;SDS011;5571;48.110;-1.706;2023-05-16T07:56:06;8.77;;;2.67;;
11034;SDS011;5571;48.110;-1.706;2023-05-16T07:58:32;7.50;;;2.20;;
11034;SDS011;5571;48.110;-1.706;2023-05-16T08:00:58;7.27;;;2.33;;
11034;SDS011;5571;48.110;-1.706;2023-05-16T08:03:24;4.40;;;2.30;;
11034;SDS011;5571;48.110;-1.706;2023-05-16T08:05:50;6.00;;;2.07;;
11034;SDS011;5571;48.110;-1.706;2023-05-16T08:08:16;6.87;;;1.93;;
11034;SDS011;5571;48.110;-1.706;2023-05-16T08:10:41;6.27;;;2.13;;
11034;SDS011;5571;48.110;-1.706;2023-05-16T08:13:07;6.33;;;2.30;;
11034;SDS011;5571;48.110;-1.706;2023-05-16T08:15:33;7.60;;;2.33;;
11034;SDS011;5571;48.110;-1.706;2023-05-16T08:17:59;3.37;;;1.70;;
11034;SDS011;5571;48.110;-1.706;2023-05-16T08:20:25;4.93;;;2.20;;
11034;SDS011;5571;48.110;-1.706;2023-05-16T08:22:51;6.43;;;2.13;;
11034;SDS011;5571;48.110;-1.706;2023-05-16T08:25:17;6.90;;;2.50;;
11034;SDS011;5571;48.110;-1.706;2023-05-16T08:27:44;6.80;;;2.20;;
11034;SDS011;5571;48.110;-1.706;2023-05-16T08:30:10;9.70;;;2.10;;
11034;SDS011;5571;48.110;-1.706;2023-05-16T08:32:37;5.13;;;2.13;;
11034;SDS011;5571;48.110;-1.706;2023-05-16T08:35:02;8.00;;;1.93;;
11034;SDS011;5571;48.110;-1.706;2023-05-16T08:37:28;7.77;;;2.17;;
11034;SDS011;5571;48.110;-1.706;2023-05-16T08:39:54;5.63;;;2.13;;
11034;SDS011;5571;48.110;-1.706;2023-05-16T08:42:20;6.63;;;2.00;;
11034;SDS011;5571;48.110;-1.706;2023-05-16T08:44:46;7.47;;;2.17;;
11034;SDS011;5571;48.110;-1.706;2023-05-16T08:47:13;5.70;;;2.13;;
11034;SDS011;5571;48.110;-1.706;2023-05-16T08:49:48;2.80;;;1.80;;
11034;SDS011;5571;48.110;-1.706;2023-05-16T08:52:17;6.30;;;2.10;;
11034;SDS011;5571;48.110;-1.706;2023-05-16T08:54:45;5.07;;;1.93;;
11034;SDS011;5571;48.110;-1.706;2023-05-16T08:57:11;7.70;;;2.23;;
11034;SDS011;5571;48.110;-1.706;2023-05-16T08:59:38;5.00;;;2.10;;
11034;SDS011;5571;48.110;-1.706;2023-05-16T09:02:04;4.37;;;2.17;;
11034;SDS011;5571;48.110;-1.706;2023-05-16T09:04:30;6.60;;;2.10;;
11034;SDS011;5571;48.110;-1.706;2023-05-16T09:06:56;4.93;;;1.70;;
11034;SDS011;5571;48.110;-1.706;2023-05-16T09:09:22;3.47;;;1.83;;
11034;SDS011;5571;48.110;-1.706;2023-05-16T09:11:48;7.90;;;2.20;;
11034;SDS011;5571;48.110;-1.706;2023-05-16T09:14:14;6.53;;;2.10;;
11034;SDS011;5571;48.110;-1.706;2023-05-16T09:16:40;6.17;;;2.10;;
11034;SDS011;5571;48.110;-1.706;2023-05-16T09:19:05;4.20;;;1.90;;
11034;SDS011;5571;48.110;-1.706;2023-05-16T09:21:31;6.90;;;2.00;;
11034;SDS011;5571;48.110;-1.706;2023-05-16T09:24:01;3.73;;;1.87;;
11034;SDS011;5571;48.110;-1.706;2023-05-16T09:26:34;6.60;;;2.20;;
11034;SDS011;5571;48.110;-1.706;2023-05-16T09:29:01;7.07;;;2.40;;
11034;SDS011;5571;48.110;-1.706;2023-05-16T09:31:34;4.43;;;1.90;;
11034;SDS011;5571;48.110;-1.706;2023-05-16T09:34:06;3.87;;;2.00;;
11034;SDS011;5571;48.110;-1.706;2023-05-16T09:36:33;5.47;;;1.63;;
11034;SDS011;5571;48.110;-1.706;2023-05-16T09:38:59;9.90;;;2.07;;
11034;SDS011;5571;48.110;-1.706;2023-05-16T09:41:25;6.23;;;1.80;;
11034;SDS011;5571;48.110;-1.706;2023-05-16T09:43:50;6.10;;;1.87;;
11034;SDS011;5571;48.110;-1.706;2023-05-16T09:46:16;4.53;;;2.03;;
11034;SDS011;5571;48.110;-1.706;2023-05-16T09:48:44;5.70;;;1.90;;
11034;SDS011;5571;48.110;-1.706;2023-05-16T09:51:13;6.17;;;1.90;;
11034;SDS011;5571;48.110;-1.706;2023-05-16T09:53:39;3.77;;;1.77;;
11034;SDS011;5571;48.110;-1.706;2023-05-16T09:56:12;6.40;;;1.90;;
11034;SDS011;5571;48.110;-1.706;2023-05-16T09:58:39;1.70;;;1.50;;
11034;SDS011;5571;48.110;-1.706;2023-05-16T10:01:06;5.43;;;1.53;;
11034;SDS011;5571;48.110;-1.706;2023-05-16T10:03:34;3.07;;;1.80;;
11034;SDS011;5571;48.110;-1.706;2023-05-16T10:06:00;4.17;;;1.73;;
11034;SDS011;5571;48.110;-1.706;2023-05-16T10:08:27;4.13;;;1.50;;
11034;SDS011;5571;48.110;-1.706;2023-05-16T10:10:56;4.40;;;1.90;;
11034;SDS011;5571;48.110;-1.706;2023-05-16T10:13:43;6.57;;;1.90;;
11034;SDS011;5571;48.110;-1.706;2023-05-16T10:16:14;3.03;;;1.60;;
11034;SDS011;5571;48.110;-1.706;2023-05-16T10:18:39;2.03;;;1.30;;
11034;SDS011;5571;48.110;-1.706;2023-05-16T10:21:07;4.97;;;1.90;;
11034;SDS011;5571;48.110;-1.706;2023-05-16T10:23:34;3.90;;;1.60;;
11034;SDS011;5571;48.110;-1.706;2023-05-16T10:26:02;4.57;;;1.77;;
11034;SDS011;5571;48.110;-1.706;2023-05-16T10:28:30;3.57;;;1.67;;
11034;SDS011;5571;48.110;-1.706;2023-05-16T10:30:56;1.40;;;1.30;;
11034;SDS011;5571;48.110;-1.706;2023-05-16T10:33:23;3.37;;;1.57;;
11034;SDS011;5571;48.110;-1.706;2023-05-16T10:35:49;5.30;;;1.52;;
11034;SDS011;5571;48.110;-1.706;2023-05-16T10:38:15;2.17;;;1.52;;
11034;SDS011;5571;48.110;-1.706;2023-05-16T10:40:42;2.70;;;1.50;;
11034;SDS011;5571;48.110;-1.706;2023-05-16T10:43:12;5.22;;;1.30;;
11034;SDS011;5571;48.110;-1.706;2023-05-16T10:45:54;4.93;;;1.60;;
11034;SDS011;5571;48.110;-1.706;2023-05-16T10:48:31;3.05;;;1.63;;
11034;SDS011;5571;48.110;-1.706;2023-05-16T10:50:57;3.55;;;1.63;;
11034;SDS011;5571;48.110;-1.706;2023-05-16T10:53:30;3.78;;;1.60;;
11034;SDS011;5571;48.110;-1.706;2023-05-16T10:58:23;3.72;;;1.70;;
11034;SDS011;5571;48.110;-1.706;2023-05-16T11:01:14;3.43;;;1.73;;
11034;SDS011;5571;48.110;-1.706;2023-05-16T11:09:05;3.83;;;1.60;;
11034;SDS011;5571;48.110;-1.706;2023-05-16T11:11:52;3.00;;;1.35;;
11034;SDS011;5571;48.110;-1.706;2023-05-16T11:14:25;3.80;;;1.80;;
11034;SDS011;5571;48.110;-1.706;2023-05-16T11:19:43;4.20;;;1.60;;
11034;SDS011;5571;48.110;-1.706;2023-05-16T11:27:22;4.13;;;1.50;;
11034;SDS011;5571;48.110;-1.706;2023-05-16T11:32:28;5.23;;;1.70;;
11034;SDS011;5571;48.110;-1.706;2023-05-16T11:34:55;3.70;;;1.60;;
11034;SDS011;5571;48.110;-1.706;2023-05-16T11:37:22;2.40;;;1.70;;
11034;SDS011;5571;48.110;-1.706;2023-05-16T11:39:47;2.10;;;1.63;;
11034;SDS011;5571;48.110;-1.706;2023-05-16T11:42:13;6.75;;;1.80;;
11034;SDS011;5571;48.110;-1.706;2023-05-16T11:44:39;3.20;;;1.58;;
11034;SDS011;5571;48.110;-1.706;2023-05-16T11:47:05;5.25;;;1.90;;
11034;SDS011;5571;48.110;-1.706;2023-05-16T11:49:31;5.38;;;1.80;;
11034;SDS011;5571;48.110;-1.706;2023-05-16T11:51:58;6.30;;;2.45;;
11034;SDS011;5571;48.110;-1.706;2023-05-16T11:54:23;2.85;;;1.50;;
11034;SDS011;5571;48.110;-1.706;2023-05-16T11:56:49;2.90;;;1.50;;
11034;SDS011;5571;48.110;-1.706;2023-05-16T11:59:16;3.45;;;1.48;;
11034;SDS011;5571;48.110;-1.706;2023-05-16T12:01:42;3.78;;;1.58;;
11034;SDS011;5571;48.110;-1.706;2023-05-16T12:04:11;1.75;;;1.35;;
11034;SDS011;5571;48.110;-1.706;2023-05-16T12:06:38;4.57;;;1.45;;
11034;SDS011;5571;48.110;-1.706;2023-05-16T12:09:05;3.67;;;1.60;;
11034;SDS011;5571;48.110;-1.706;2023-05-16T12:11:38;6.05;;;1.90;;
11034;SDS011;5571;48.110;-1.706;2023-05-16T12:14:06;5.45;;;1.98;;
11034;SDS011;5571;48.110;-1.706;2023-05-16T12:16:33;5.78;;;1.90;;
11034;SDS011;5571;48.110;-1.706;2023-05-16T12:19:03;6.43;;;1.90;;
11034;SDS011;5571;48.110;-1.706;2023-05-16T12:21:31;4.78;;;1.75;;
11034;SDS011;5571;48.110;-1.706;2023-05-16T12:23:57;3.90;;;1.50;;
11034;SDS011;5571;48.110;-1.706;2023-05-16T12:26:26;2.45;;;1.23;;
11034;SDS011;5571;48.110;-1.706;2023-05-16T12:28:58;3.95;;;1.73;;
11034;SDS011;5571;48.110;-1.706;2023-05-16T12:31:27;1.60;;;1.23;;
11034;SDS011;5571;48.110;-1.706;2023-05-16T12:33:57;4.97;;;2.03;;
11034;SDS011;5571;48.110;-1.706;2023-05-16T12:36:23;3.60;;;1.63;;
11034;SDS011;5571;48.110;-1.706;2023-05-16T12:38:50;4.75;;;1.77;;
11034;SDS011;5571;48.110;-1.706;2023-05-16T12:41:21;7.80;;;1.80;;
11034;SDS011;5571;48.110;-1.706;2023-05-16T12:43:50;1.88;;;1.15;;
11034;SDS011;5571;48.110;-1.706;2023-05-16T12:46:15;4.45;;;1.70;;
11034;SDS011;5571;48.110;-1.706;2023-05-16T12:48:43;4.40;;;1.50;;
11034;SDS011;5571;48.110;-1.706;2023-05-16T12:51:11;6.05;;;2.10;;
11034;SDS011;5571;48.110;-1.706;2023-05-16T12:53:42;11.00;;;1.90;;
11034;SDS011;5571;48.110;-1.706;2023-05-16T12:56:09;3.38;;;1.65;;
11034;SDS011;5571;48.110;-1.706;2023-05-16T12:58:36;5.75;;;1.80;;
11034;SDS011;5571;48.110;-1.706;2023-05-16T13:01:02;5.38;;;1.60;;
11034;SDS011;5571;48.110;-1.706;2023-05-16T13:03:28;4.13;;;1.70;;
11034;SDS011;5571;48.110;-1.706;2023-05-16T13:05:54;4.22;;;1.65;;
11034;SDS011;5571;48.110;-1.706;2023-05-16T13:08:20;2.85;;;1.55;;
11034;SDS011;5571;48.110;-1.706;2023-05-16T13:10:45;3.35;;;1.90;;
11034;SDS011;5571;48.110;-1.706;2023-05-16T13:13:11;4.00;;;1.50;;
11034;SDS011;5571;48.110;-1.706;2023-05-16T13:15:38;4.18;;;1.63;;
11034;SDS011;5571;48.110;-1.706;2023-05-16T13:18:04;4.05;;;1.73;;
11034;SDS011;5571;48.110;-1.706;2023-05-16T13:20:30;4.03;;;1.42;;
11034;SDS011;5571;48.110;-1.706;2023-05-16T13:22:56;4.40;;;1.85;;
11034;SDS011;5571;48.110;-1.706;2023-05-16T13:25:22;4.57;;;1.90;;
11034;SDS011;5571;48.110;-1.706;2023-05-16T13:27:47;7.85;;;1.90;;
11034;SDS011;5571;48.110;-1.706;2023-05-16T13:30:13;4.55;;;1.65;;
11034;SDS011;5571;48.110;-1.706;2023-05-16T13:32:39;4.90;;;1.85;;
11034;SDS011;5571;48.110;-1.706;2023-05-16T13:35:05;3.40;;;1.92;;
11034;SDS011;5571;48.110;-1.706;2023-05-16T13:37:32;5.10;;;1.77;;
11034;SDS011;5571;48.110;-1.706;2023-05-16T13:39:58;4.40;;;1.85;;
11034;SDS011;5571;48.110;-1.706;2023-05-16T13:42:23;4.45;;;1.63;;
11034;SDS011;5571;48.110;-1.706;2023-05-16T13:44:49;7.10;;;1.85;;
11034;SDS011;5571;48.110;-1.706;2023-05-16T13:47:14;5.03;;;1.80;;
11034;SDS011;5571;48.110;-1.706;2023-05-16T13:49:40;4.45;;;1.80;;
11034;SDS011;5571;48.110;-1.706;2023-05-16T13:52:06;8.20;;;1.90;;
11034;SDS011;5571;48.110;-1.706;2023-05-16T13:54:32;5.03;;;1.92;;
11034;SDS011;5571;48.110;-1.706;2023-05-16T13:56:57;3.65;;;1.50;;
11034;SDS011;5571;48.110;-1.706;2023-05-16T13:59:23;4.78;;;1.52;;
11034;SDS011;5571;48.110;-1.706;2023-05-16T14:01:49;4.80;;;1.40;;
11034;SDS011;5571;48.110;-1.706;2023-05-16T14:04:15;4.65;;;1.77;;
11034;SDS011;5571;48.110;-1.706;2023-05-16T14:06:41;7.50;;;1.88;;
11034;SDS011;5571;48.110;-1.706;2023-05-16T14:09:06;5.30;;;1.67;;
11034;SDS011;5571;48.110;-1.706;2023-05-16T14:11:32;7.13;;;1.85;;
11034;SDS011;5571;48.110;-1.706;2023-05-16T14:13:58;6.20;;;1.90;;
11034;SDS011;5571;48.110;-1.706;2023-05-16T14:16:23;4.60;;;1.70;;
11034;SDS011;5571;48.110;-1.706;2023-05-16T14:18:49;4.78;;;1.98;;
11034;SDS011;5571;48.110;-1.706;2023-05-16T14:21:15;4.35;;;1.80;;
11034;SDS011;5571;48.110;-1.706;2023-05-16T14:23:41;6.35;;;1.80;;
11034;SDS011;5571;48.110;-1.706;2023-05-16T14:26:07;4.43;;;1.90;;
11034;SDS011;5571;48.110;-1.706;2023-05-16T14:28:32;4.43;;;1.60;;
11034;SDS011;5571;48.110;-1.706;2023-05-16T14:30:58;4.70;;;1.90;;
11034;SDS011;5571;48.110;-1.706;2023-05-16T14:33:25;5.13;;;2.13;;
11034;SDS011;5571;48.110;-1.706;2023-05-16T14:35:50;6.57;;;1.75;;
11034;SDS011;5571;48.110;-1.706;2023-05-16T14:38:17;6.30;;;1.88;;
11034;SDS011;5571;48.110;-1.706;2023-05-16T14:40:43;10.98;;;1.80;;
11034;SDS011;5571;48.110;-1.706;2023-05-16T14:43:08;6.90;;;1.95;;
11034;SDS011;5571;48.110;-1.706;2023-05-16T14:45:35;3.78;;;1.92;;
11034;SDS011;5571;48.110;-1.706;2023-05-16T14:48:01;5.15;;;1.88;;
11034;SDS011;5571;48.110;-1.706;2023-05-16T14:50:27;5.53;;;1.80;;
11034;SDS011;5571;48.110;-1.706;2023-05-16T14:52:53;10.93;;;1.90;;
11034;SDS011;5571;48.110;-1.706;2023-05-16T14:55:19;5.53;;;1.77;;
11034;SDS011;5571;48.110;-1.706;2023-05-16T14:57:45;5.18;;;1.77;;
11034;SDS011;5571;48.110;-1.706;2023-05-16T15:00:11;4.40;;;1.88;;
11034;SDS011;5571;48.110;-1.706;2023-05-16T15:02:39;7.20;;;1.60;;
11034;SDS011;5571;48.110;-1.706;2023-05-16T15:05:04;6.55;;;1.85;;
11034;SDS011;5571;48.110;-1.706;2023-05-16T15:07:30;7.20;;;1.75;;
11034;SDS011;5571;48.110;-1.706;2023-05-16T15:09:56;6.93;;;1.67;;
11034;SDS011;5571;48.110;-1.706;2023-05-16T15:12:22;4.78;;;1.83;;